Shinpu Maru — JD3456 — position and weather

sailwx.info

Track history (hours):
 
Tides and Currents Weather Stations Pressure Air Temp Water Temp Dewpoint Dewpoint Depression Visibility Wind Speed Wind Dir Waves Ship Positions

Shinpu Maru

Last reported at 2017-Sep-20 08:10 UTC. Time now 2017-Sep-23 07:30 UTC.
Position N 34°48' E 139°09'.

Length 71 m; draft 4.8 m.

Type: Tanker. MMSI: 431004247.

Date/timePositionNaut miles runAvg speedWind from/ knotsBaromVisibWave heightAir tempDewpointWater temp
2017-Sep-20 08:10N 34°48' E 139°09'211.7
2017-Sep-20 07:58N 34°50' E 139°11'1310.7
2017-Sep-20 06:48N 34°59' E 139°22'310.7
2017-Sep-20 06:30N 35°00' E 139°26'510.6
2017-Sep-20 06:00N 35°03' E 139°31'611.1
2017-Sep-20 05:30N 35°05' E 139°37'612.4
2017-Sep-20 05:00N 35°09' E 139°43'611.6
2017-Sep-20 04:30N 35°14' E 139°46'611.5
2017-Sep-20 04:00N 35°19' E 139°43'511.0
2017-Sep-20 03:30N 35°25' E 139°43'4 8.6
2017-Sep-20 03:00N 35°29' E 139°43'0 0.1
2017-Sep-20 02:30N 35°29' E 139°43'0 0.0
2017-Sep-20 02:00N 35°29' E 139°43'0 0.0
2017-Sep-20 01:30N 35°29' E 139°43'0 0.0
2017-Sep-20 01:00N 35°29' E 139°43'0 0.0
2017-Sep-20 00:30N 35°29' E 139°43'0 0.0
2017-Sep-20 00:00N 35°29' E 139°43'0 0.0
2017-Sep-19 23:30N 35°29' E 139°43'0 0.7
2017-Sep-19 23:00N 35°29' E 139°43'3 5.2
2017-Sep-19 22:30N 35°29' E 139°47'0 0.0
2017-Sep-19 22:00N 35°29' E 139°47'0 0.0
2017-Sep-19 21:30N 35°29' E 139°47'0 0.0
2017-Sep-19 21:00N 35°29' E 139°47'0 0.0
2017-Sep-19 20:30N 35°29' E 139°47'0 0.0
2017-Sep-19 20:00N 35°29' E 139°47'0 0.0
2017-Sep-19 19:30N 35°29' E 139°47'0 0.1
2017-Sep-19 19:00N 35°29' E 139°47'0 0.0
2017-Sep-19 18:30N 35°29' E 139°47'0 0.0
2017-Sep-19 18:00N 35°29' E 139°47'0 0.0
2017-Sep-19 17:30N 35°29' E 139°47'0 0.0
2017-Sep-19 17:00N 35°29' E 139°47'0 0.0
2017-Sep-19 16:30N 35°29' E 139°47'0 0.0
2017-Sep-19 16:00N 35°29' E 139°47'0 0.0
2017-Sep-19 15:30N 35°29' E 139°47'0 0.0
2017-Sep-19 15:00N 35°29' E 139°47'0 0.0
2017-Sep-19 14:30N 35°29' E 139°47'0 0.0
2017-Sep-19 14:00N 35°29' E 139°47'0 0.0
2017-Sep-19 13:30N 35°29' E 139°47'0 0.0
2017-Sep-19 13:00N 35°29' E 139°47'0 0.0
2017-Sep-19 12:30N 35°29' E 139°47'0 0.0
2017-Sep-19 12:00N 35°29' E 139°47'0 0.0
2017-Sep-19 11:30N 35°29' E 139°47'0 0.0
2017-Sep-19 11:00N 35°29' E 139°47'0 0.0
2017-Sep-19 10:30N 35°29' E 139°47'0 0.0
2017-Sep-19 10:00N 35°29' E 139°47'0 0.0
2017-Sep-19 09:30N 35°29' E 139°47'0 0.0
2017-Sep-19 09:00N 35°29' E 139°47'0 0.0
2017-Sep-19 08:30N 35°29' E 139°47'0 0.0
2017-Sep-19 08:00N 35°29' E 139°47'0 0.0
2017-Sep-19 07:30N 35°29' E 139°47'0 0.0
2017-Sep-19 07:00N 35°29' E 139°47'0 0.1
2017-Sep-19 06:30N 35°29' E 139°47'3 5.7
2017-Sep-19 06:00N 35°29' E 139°43'0 0.3
2017-Sep-19 05:30N 35°29' E 139°43'0 0.0
2017-Sep-19 05:00N 35°29' E 139°43'0 0.0
2017-Sep-19 04:30N 35°29' E 139°43'0 0.0
2017-Sep-19 04:00N 35°29' E 139°43'0 0.0
2017-Sep-19 03:30N 35°29' E 139°43'2 3.4
2017-Sep-19 03:00N 35°30' E 139°45'612.1
2017-Sep-19 02:30N 35°31' E 139°52'10 2.0
2017-Sep-18 21:22N 35°34' E 140°04'0 0.0
2017-Sep-18 17:26N 35°34' E 140°04'0 0.0
2017-Sep-18 16:53N 35°34' E 140°04'0 0.0
2017-Sep-18 07:40N 35°34' E 140°04'0 0.0
2017-Sep-18 07:29N 35°34' E 140°04'0 0.0
2017-Sep-18 06:59N 35°34' E 140°04'0 0.0
2017-Sep-18 05:53N 35°34' E 140°04'0 0.0
2017-Sep-18 05:23N 35°34' E 140°04'0 0.0
2017-Sep-18 00:48N 35°34' E 140°04'0 0.0
2017-Sep-17 20:43N 35°34' E 140°04'  
2017-Sep-15 08:16N 35°34' E 140°01'311.6
2017-Sep-15 08:00N 35°33' E 139°58'612.0
2017-Sep-15 07:30N 35°31' E 139°51'611.5
2017-Sep-15 07:00N 35°30' E 139°44'1 2.1
2017-Sep-15 06:30N 35°29' E 139°43'0 0.0
2017-Sep-15 06:00N 35°29' E 139°43'0 0.0
2017-Sep-15 05:30N 35°29' E 139°43'0 0.0
2017-Sep-15 05:00N 35°29' E 139°43'0 0.2
2017-Sep-15 04:30N 35°29' E 139°43'5 9.8
2017-Sep-15 04:00N 35°30' E 139°49'10 1.4
2017-Sep-14 21:06N 35°33' E 140°00'111.3
2017-Sep-14 20:59N 35°32' E 139°59'611.8
2017-Sep-14 20:30N 35°29' E 139°53'611.6
2017-Sep-14 20:00N 35°26' E 139°48'611.5
2017-Sep-14 19:30N 35°20' E 139°45'510.8
2017-Sep-14 19:00N 35°15' E 139°47'611.0
2017-Sep-14 18:30N 35°10' E 139°46'611.7
2017-Sep-14 18:00N 35°04' E 139°44'612.3
2017-Sep-14 17:30N 35°00' E 139°39'  
Track history (hours):
 
Tides and Currents Weather Stations Pressure Air Temp Water Temp Dewpoint Dewpoint Depression Visibility Wind Speed Wind Dir Waves Ship Positions

Shinpu Maru

Last reported at 2017-Sep-20 08:10 UTC. Time now 2017-Sep-23 07:30 UTC.
Position N 34°48' E 139°09'.

Length 71 m; draft 4.8 m.

Type: Tanker. MMSI: 431004247.

Date/timePositionNaut miles runAvg speedWind from/ knotsBaromVisibWave heightAir tempDewpointWater temp
2017-Sep-20 08:10N 34°48' E 139°09'211.7
2017-Sep-20 07:58N 34°50' E 139°11'1310.7
2017-Sep-20 06:48N 34°59' E 139°22'310.7
2017-Sep-20 06:30N 35°00' E 139°26'510.6
2017-Sep-20 06:00N 35°03' E 139°31'611.1
2017-Sep-20 05:30N 35°05' E 139°37'612.4
2017-Sep-20 05:00N 35°09' E 139°43'611.6
2017-Sep-20 04:30N 35°14' E 139°46'611.5
2017-Sep-20 04:00N 35°19' E 139°43'511.0
2017-Sep-20 03:30N 35°25' E 139°43'4 8.6
2017-Sep-20 03:00N 35°29' E 139°43'0 0.1
2017-Sep-20 02:30N 35°29' E 139°43'0 0.0
2017-Sep-20 02:00N 35°29' E 139°43'0 0.0
2017-Sep-20 01:30N 35°29' E 139°43'0 0.0
2017-Sep-20 01:00N 35°29' E 139°43'0 0.0
2017-Sep-20 00:30N 35°29' E 139°43'0 0.0
2017-Sep-20 00:00N 35°29' E 139°43'0 0.0
2017-Sep-19 23:30N 35°29' E 139°43'0 0.7
2017-Sep-19 23:00N 35°29' E 139°43'3 5.2
2017-Sep-19 22:30N 35°29' E 139°47'0 0.0
2017-Sep-19 22:00N 35°29' E 139°47'0 0.0
2017-Sep-19 21:30N 35°29' E 139°47'0 0.0
2017-Sep-19 21:00N 35°29' E 139°47'0 0.0
2017-Sep-19 20:30N 35°29' E 139°47'0 0.0
2017-Sep-19 20:00N 35°29' E 139°47'0 0.0
2017-Sep-19 19:30N 35°29' E 139°47'0 0.1
2017-Sep-19 19:00N 35°29' E 139°47'0 0.0
2017-Sep-19 18:30N 35°29' E 139°47'0 0.0
2017-Sep-19 18:00N 35°29' E 139°47'0 0.0
2017-Sep-19 17:30N 35°29' E 139°47'0 0.0
2017-Sep-19 17:00N 35°29' E 139°47'0 0.0
2017-Sep-19 16:30N 35°29' E 139°47'0 0.0
2017-Sep-19 16:00N 35°29' E 139°47'0 0.0
2017-Sep-19 15:30N 35°29' E 139°47'0 0.0
2017-Sep-19 15:00N 35°29' E 139°47'0 0.0
2017-Sep-19 14:30N 35°29' E 139°47'0 0.0
2017-Sep-19 14:00N 35°29' E 139°47'0 0.0
2017-Sep-19 13:30N 35°29' E 139°47'0 0.0
2017-Sep-19 13:00N 35°29' E 139°47'0 0.0
2017-Sep-19 12:30N 35°29' E 139°47'0 0.0
2017-Sep-19 12:00N 35°29' E 139°47'0 0.0
2017-Sep-19 11:30N 35°29' E 139°47'0 0.0
2017-Sep-19 11:00N 35°29' E 139°47'0 0.0
2017-Sep-19 10:30N 35°29' E 139°47'0 0.0
2017-Sep-19 10:00N 35°29' E 139°47'0 0.0
2017-Sep-19 09:30N 35°29' E 139°47'0 0.0
2017-Sep-19 09:00N 35°29' E 139°47'0 0.0
2017-Sep-19 08:30N 35°29' E 139°47'0 0.0
2017-Sep-19 08:00N 35°29' E 139°47'0 0.0
2017-Sep-19 07:30N 35°29' E 139°47'0 0.0
2017-Sep-19 07:00N 35°29' E 139°47'0 0.1
2017-Sep-19 06:30N 35°29' E 139°47'3 5.7
2017-Sep-19 06:00N 35°29' E 139°43'0 0.3
2017-Sep-19 05:30N 35°29' E 139°43'0 0.0
2017-Sep-19 05:00N 35°29' E 139°43'0 0.0
2017-Sep-19 04:30N 35°29' E 139°43'0 0.0
2017-Sep-19 04:00N 35°29' E 139°43'0 0.0
2017-Sep-19 03:30N 35°29' E 139°43'2 3.4
2017-Sep-19 03:00N 35°30' E 139°45'612.1
2017-Sep-19 02:30N 35°31' E 139°52'10 2.0
2017-Sep-18 21:22N 35°34' E 140°04'0 0.0
2017-Sep-18 17:26N 35°34' E 140°04'0 0.0
2017-Sep-18 16:53N 35°34' E 140°04'0 0.0
2017-Sep-18 07:40N 35°34' E 140°04'0 0.0
2017-Sep-18 07:29N 35°34' E 140°04'0 0.0
2017-Sep-18 06:59N 35°34' E 140°04'0 0.0
2017-Sep-18 05:53N 35°34' E 140°04'0 0.0
2017-Sep-18 05:23N 35°34' E 140°04'0 0.0
2017-Sep-18 00:48N 35°34' E 140°04'0 0.0
2017-Sep-17 20:43N 35°34' E 140°04'  
2017-Sep-15 08:16N 35°34' E 140°01'311.6
2017-Sep-15 08:00N 35°33' E 139°58'612.0
2017-Sep-15 07:30N 35°31' E 139°51'611.5
2017-Sep-15 07:00N 35°30' E 139°44'1 2.1
2017-Sep-15 06:30N 35°29' E 139°43'0 0.0
2017-Sep-15 06:00N 35°29' E 139°43'0 0.0
2017-Sep-15 05:30N 35°29' E 139°43'0 0.0
2017-Sep-15 05:00N 35°29' E 139°43'0 0.2
2017-Sep-15 04:30N 35°29' E 139°43'5 9.8
2017-Sep-15 04:00N 35°30' E 139°49'10 1.4
2017-Sep-14 21:06N 35°33' E 140°00'111.3
2017-Sep-14 20:59N 35°32' E 139°59'611.8
2017-Sep-14 20:30N 35°29' E 139°53'611.6
2017-Sep-14 20:00N 35°26' E 139°48'611.5
2017-Sep-14 19:30N 35°20' E 139°45'510.8
2017-Sep-14 19:00N 35°15' E 139°47'611.0
2017-Sep-14 18:30N 35°10' E 139°46'611.7
2017-Sep-14 18:00N 35°04' E 139°44'612.3
2017-Sep-14 17:30N 35°00' E 139°39'  

Dump ship's entire track history